sensor_id;sensor_type;location;lat;lon;timestamp;pressure;altitude;pressure_sealevel;temperature;humidity
8627;BME280;4351;51.422;6.794;2022-12-08T00:01:32;98375.50;;;4.22;100.00
8627;BME280;4351;51.422;6.794;2022-12-08T00:04:02;98367.38;;;4.23;100.00
8627;BME280;4351;51.422;6.794;2022-12-08T00:06:34;98360.41;;;4.34;100.00
8627;BME280;4351;51.422;6.794;2022-12-08T00:09:21;98354.84;;;4.37;100.00
8627;BME280;4351;51.422;6.794;2022-12-08T00:11:53;98352.59;;;4.44;100.00
8627;BME280;4351;51.422;6.794;2022-12-08T00:14:23;98333.56;;;4.48;100.00
8627;BME280;4351;51.422;6.794;2022-12-08T00:16:51;98332.28;;;4.41;100.00
8627;BME280;4351;51.422;6.794;2022-12-08T00:19:20;98339.34;;;4.42;100.00
8627;BME280;4351;51.422;6.794;2022-12-08T00:21:51;98321.63;;;4.41;100.00
8627;BME280;4351;51.422;6.794;2022-12-08T00:24:19;98321.00;;;4.37;100.00
8627;BME280;4351;51.422;6.794;2022-12-08T00:26:48;98313.66;;;4.53;100.00
8627;BME280;4351;51.422;6.794;2022-12-08T00:29:16;98312.66;;;4.42;100.00
8627;BME280;4351;51.422;6.794;2022-12-08T00:31:44;98318.00;;;4.42;100.00
8627;BME280;4351;51.422;6.794;2022-12-08T00:34:13;98322.53;;;4.29;100.00
8627;BME280;4351;51.422;6.794;2022-12-08T00:36:41;98313.19;;;4.34;100.00
8627;BME280;4351;51.422;6.794;2022-12-08T00:39:12;98312.25;;;4.35;100.00
8627;BME280;4351;51.422;6.794;2022-12-08T00:41:40;98313.13;;;4.36;100.00
8627;BME280;4351;51.422;6.794;2022-12-08T00:44:26;98307.53;;;4.39;100.00
8627;BME280;4351;51.422;6.794;2022-12-08T00:46:54;98306.56;;;4.40;100.00
8627;BME280;4351;51.422;6.794;2022-12-08T00:49:22;98313.84;;;4.38;100.00
8627;BME280;4351;51.422;6.794;2022-12-08T00:51:51;98306.84;;;4.48;100.00
8627;BME280;4351;51.422;6.794;2022-12-08T00:54:20;98309.88;;;4.44;100.00
8627;BME280;4351;51.422;6.794;2022-12-08T00:56:49;98310.25;;;4.51;100.00
8627;BME280;4351;51.422;6.794;2022-12-08T00:59:18;98307.44;;;4.41;100.00
8627;BME280;4351;51.422;6.794;2022-12-08T01:01:46;98298.84;;;4.48;100.00
8627;BME280;4351;51.422;6.794;2022-12-08T01:04:16;98305.16;;;4.47;100.00
8627;BME280;4351;51.422;6.794;2022-12-08T01:06:45;98300.03;;;4.44;100.00
8627;BME280;4351;51.422;6.794;2022-12-08T01:09:15;98292.91;;;4.56;100.00
8627;BME280;4351;51.422;6.794;2022-12-08T01:11:45;98306.75;;;4.25;100.00
8627;BME280;4351;51.422;6.794;2022-12-08T01:14:13;98296.38;;;4.45;100.00
8627;BME280;4351;51.422;6.794;2022-12-08T01:16:42;98306.91;;;4.35;100.00
8627;BME280;4351;51.422;6.794;2022-12-08T01:19:12;98303.09;;;4.27;100.00
8627;BME280;4351;51.422;6.794;2022-12-08T01:21:41;98299.53;;;4.39;100.00
8627;BME280;4351;51.422;6.794;2022-12-08T01:24:10;98308.22;;;4.30;100.00
8627;BME280;4351;51.422;6.794;2022-12-08T01:26:39;98312.50;;;4.19;100.00
8627;BME280;4351;51.422;6.794;2022-12-08T01:29:09;98313.25;;;4.21;100.00
8627;BME280;4351;51.422;6.794;2022-12-08T01:31:38;98297.59;;;4.41;100.00
8627;BME280;4351;51.422;6.794;2022-12-08T01:34:06;98288.91;;;4.51;100.00
8627;BME280;4351;51.422;6.794;2022-12-08T01:36:35;98301.44;;;4.37;100.00
8627;BME280;4351;51.422;6.794;2022-12-08T01:39:06;98299.69;;;4.24;100.00
8627;BME280;4351;51.422;6.794;2022-12-08T01:41:36;98299.44;;;4.41;100.00
8627;BME280;4351;51.422;6.794;2022-12-08T01:47:07;98301.16;;;4.29;100.00
8627;BME280;4351;51.422;6.794;2022-12-08T01:49:35;98289.81;;;4.38;100.00
8627;BME280;4351;51.422;6.794;2022-12-08T01:52:09;98294.16;;;4.28;100.00
8627;BME280;4351;51.422;6.794;2022-12-08T01:54:41;98301.34;;;4.39;100.00
8627;BME280;4351;51.422;6.794;2022-12-08T01:57:12;98289.81;;;4.38;100.00
8627;BME280;4351;51.422;6.794;2022-12-08T01:59:46;98302.16;;;4.28;100.00
8627;BME280;4351;51.422;6.794;2022-12-08T02:02:16;98303.09;;;4.27;100.00
8627;BME280;4351;51.422;6.794;2022-12-08T02:04:44;98294.09;;;4.41;100.00
8627;BME280;4351;51.422;6.794;2022-12-08T02:07:13;98290.09;;;4.46;100.00
8627;BME280;4351;51.422;6.794;2022-12-08T02:09:43;98288.22;;;4.35;100.00
8627;BME280;4351;51.422;6.794;2022-12-08T02:12:11;98276.13;;;4.43;100.00
8627;BME280;4351;51.422;6.794;2022-12-08T02:14:40;98271.22;;;4.61;100.00
8627;BME280;4351;51.422;6.794;2022-12-08T02:17:21;98267.66;;;4.49;100.00
8627;BME280;4351;51.422;6.794;2022-12-08T02:20:10;98270.63;;;4.33;100.00
8627;BME280;4351;51.422;6.794;2022-12-08T02:22:50;98267.66;;;4.24;100.00
8627;BME280;4351;51.422;6.794;2022-12-08T02:25:30;98274.59;;;4.27;100.00
8627;BME280;4351;51.422;6.794;2022-12-08T02:28:11;98267.66;;;4.24;100.00
8627;BME280;4351;51.422;6.794;2022-12-08T02:30:49;98269.16;;;4.29;100.00
8627;BME280;4351;51.422;6.794;2022-12-08T02:36:31;98264.13;;;4.24;100.00
8627;BME280;4351;51.422;6.794;2022-12-08T02:39:08;98255.25;;;4.36;100.00
8627;BME280;4351;51.422;6.794;2022-12-08T02:41:43;98242.56;;;4.52;100.00
8627;BME280;4351;51.422;6.794;2022-12-08T02:44:18;98235.28;;;4.54;100.00
8627;BME280;4351;51.422;6.794;2022-12-08T02:46:51;98242.56;;;4.27;100.00
8627;BME280;4351;51.422;6.794;2022-12-08T02:49:26;98241.94;;;4.23;100.00
8627;BME280;4351;51.422;6.794;2022-12-08T02:52:05;98234.03;;;4.46;100.00
8627;BME280;4351;51.422;6.794;2022-12-08T02:54:34;98225.16;;;4.46;100.00
8627;BME280;4351;51.422;6.794;2022-12-08T02:57:13;98230.56;;;4.33;100.00
8627;BME280;4351;51.422;6.794;2022-12-08T02:59:59;98226.44;;;4.29;100.00
8627;BME280;4351;51.422;6.794;2022-12-08T03:02:42;98224.91;;;4.37;100.00
8627;BME280;4351;51.422;6.794;2022-12-08T03:05:26;98224.03;;;4.37;100.00
8627;BME280;4351;51.422;6.794;2022-12-08T03:08:05;98224.69;;;4.41;100.00
8627;BME280;4351;51.422;6.794;2022-12-08T03:10:40;98206.88;;;4.53;100.00
8627;BME280;4351;51.422;6.794;2022-12-08T03:13:11;98213.03;;;4.42;100.00
8627;BME280;4351;51.422;6.794;2022-12-08T03:15:42;98208.28;;;4.45;100.00
8627;BME280;4351;51.422;6.794;2022-12-08T03:18:14;98212.75;;;4.33;100.00
8627;BME280;4351;51.422;6.794;2022-12-08T03:20:44;98203.94;;;4.44;100.00
8627;BME280;4351;51.422;6.794;2022-12-08T03:23:14;98188.91;;;4.55;100.00
8627;BME280;4351;51.422;6.794;2022-12-08T03:25:47;98197.59;;;4.45;100.00
8627;BME280;4351;51.422;6.794;2022-12-08T03:28:17;98194.13;;;4.45;100.00
8627;BME280;4351;51.422;6.794;2022-12-08T03:30:47;98178.00;;;4.58;100.00
8627;BME280;4351;51.422;6.794;2022-12-08T03:33:19;98176.06;;;4.60;100.00
8627;BME280;4351;51.422;6.794;2022-12-08T03:35:50;98182.44;;;4.46;100.00
8627;BME280;4351;51.422;6.794;2022-12-08T03:38:21;98189.72;;;4.44;100.00
8627;BME280;4351;51.422;6.794;2022-12-08T03:40:49;98179.81;;;4.57;100.00
8627;BME280;4351;51.422;6.794;2022-12-08T03:43:32;98180.91;;;4.55;100.00
8627;BME280;4351;51.422;6.794;2022-12-08T03:46:00;98180.25;;;4.40;100.00
8627;BME280;4351;51.422;6.794;2022-12-08T03:48:28;98167.94;;;4.62;100.00
8627;BME280;4351;51.422;6.794;2022-12-08T03:50:56;98174.47;;;4.57;100.00
8627;BME280;4351;51.422;6.794;2022-12-08T03:53:26;98164.75;;;4.45;100.00
8627;BME280;4351;51.422;6.794;2022-12-08T03:55:53;98167.50;;;4.43;100.00
8627;BME280;4351;51.422;6.794;2022-12-08T03:58:21;98163.53;;;4.49;100.00
8627;BME280;4351;51.422;6.794;2022-12-08T04:00:49;98149.09;;;4.63;100.00
8627;BME280;4351;51.422;6.794;2022-12-08T04:03:17;98166.16;;;4.37;100.00
8627;BME280;4351;51.422;6.794;2022-12-08T04:05:45;98169.09;;;4.46;100.00
8627;BME280;4351;51.422;6.794;2022-12-08T04:08:13;98162.22;;;4.55;100.00
8627;BME280;4351;51.422;6.794;2022-12-08T04:10:43;98164.22;;;4.40;100.00
8627;BME280;4351;51.422;6.794;2022-12-08T04:13:11;98164.19;;;4.28;100.00
8627;BME280;4351;51.422;6.794;2022-12-08T04:15:38;98155.72;;;4.34;100.00
8627;BME280;4351;51.422;6.794;2022-12-08T04:18:06;98155.16;;;4.42;100.00
8627;BME280;4351;51.422;6.794;2022-12-08T04:20:37;98155.50;;;4.37;100.00
8627;BME280;4351;51.422;6.794;2022-12-08T04:23:06;98132.09;;;4.53;100.00
8627;BME280;4351;51.422;6.794;2022-12-08T04:25:34;98141.19;;;4.50;100.00
8627;BME280;4351;51.422;6.794;2022-12-08T04:28:04;98131.63;;;4.59;100.00
8627;BME280;4351;51.422;6.794;2022-12-08T04:30:33;98138.44;;;4.52;100.00
8627;BME280;4351;51.422;6.794;2022-12-08T04:33:01;98129.69;;;4.50;100.00
8627;BME280;4351;51.422;6.794;2022-12-08T04:35:29;98124.13;;;4.64;100.00
8627;BME280;4351;51.422;6.794;2022-12-08T04:37:57;98133.19;;;4.50;100.00
8627;BME280;4351;51.422;6.794;2022-12-08T04:40:25;98136.25;;;4.57;100.00
8627;BME280;4351;51.422;6.794;2022-12-08T04:42:53;98121.81;;;4.59;100.00
8627;BME280;4351;51.422;6.794;2022-12-08T04:45:22;98128.72;;;4.51;100.00
8627;BME280;4351;51.422;6.794;2022-12-08T04:47:50;98119.75;;;4.52;100.00
8627;BME280;4351;51.422;6.794;2022-12-08T04:50:18;98108.22;;;4.63;100.00
8627;BME280;4351;51.422;6.794;2022-12-08T04:52:46;98108.09;;;4.64;100.00
8627;BME280;4351;51.422;6.794;2022-12-08T04:55:14;98116.59;;;4.58;100.00
8627;BME280;4351;51.422;6.794;2022-12-08T04:57:42;98108.59;;;4.58;100.00
8627;BME280;4351;51.422;6.794;2022-12-08T05:00:11;98095.47;;;4.66;100.00
8627;BME280;4351;51.422;6.794;2022-12-08T05:02:41;98107.94;;;4.54;100.00
8627;BME280;4351;51.422;6.794;2022-12-08T05:05:09;98101.31;;;4.60;100.00
8627;BME280;4351;51.422;6.794;2022-12-08T05:07:37;98113.28;;;4.43;100.00
8627;BME280;4351;51.422;6.794;2022-12-08T05:10:06;98111.72;;;4.52;100.00
8627;BME280;4351;51.422;6.794;2022-12-08T05:12:34;98112.44;;;4.42;100.00
8627;BME280;4351;51.422;6.794;2022-12-08T05:15:03;98092.19;;;4.74;100.00
8627;BME280;4351;51.422;6.794;2022-12-08T05:17:31;98106.84;;;4.34;100.00
8627;BME280;4351;51.422;6.794;2022-12-08T05:20:00;98098.84;;;4.45;100.00
8627;BME280;4351;51.422;6.794;2022-12-08T05:22:29;98106.97;;;4.44;100.00
8627;BME280;4351;51.422;6.794;2022-12-08T05:24:57;98102.50;;;4.44;100.00
8627;BME280;4351;51.422;6.794;2022-12-08T05:27:25;98097.28;;;4.54;100.00
8627;BME280;4351;51.422;6.794;2022-12-08T05:29:53;98091.34;;;4.62;100.00
8627;BME280;4351;51.422;6.794;2022-12-08T05:32:21;98096.91;;;4.59;100.00
8627;BME280;4351;51.422;6.794;2022-12-08T05:34:48;98095.09;;;4.59;100.00
8627;BME280;4351;51.422;6.794;2022-12-08T05:37:18;98079.81;;;4.73;100.00
8627;BME280;4351;51.422;6.794;2022-12-08T05:39:46;98087.34;;;4.68;100.00
8627;BME280;4351;51.422;6.794;2022-12-08T05:42:14;98076.28;;;4.61;100.00
8627;BME280;4351;51.422;6.794;2022-12-08T05:44:50;98088.16;;;4.45;100.00
8627;BME280;4351;51.422;6.794;2022-12-08T05:47:17;98076.19;;;4.63;100.00
8627;BME280;4351;51.422;6.794;2022-12-08T05:49:45;98072.91;;;4.70;100.00
8627;BME280;4351;51.422;6.794;2022-12-08T05:52:13;98064.38;;;4.65;100.00
8627;BME280;4351;51.422;6.794;2022-12-08T05:54:43;98073.38;;;4.53;100.00
8627;BME280;4351;51.422;6.794;2022-12-08T05:57:11;98069.00;;;4.63;100.00
8627;BME280;4351;51.422;6.794;2022-12-08T05:59:39;98056.63;;;4.62;100.00
8627;BME280;4351;51.422;6.794;2022-12-08T06:02:07;98068.75;;;4.43;100.00
8627;BME280;4351;51.422;6.794;2022-12-08T06:04:35;98048.50;;;4.64;100.00
8627;BME280;4351;51.422;6.794;2022-12-08T06:07:03;98060.75;;;4.55;100.00
8627;BME280;4351;51.422;6.794;2022-12-08T06:09:31;98064.25;;;4.44;100.00
8627;BME280;4351;51.422;6.794;2022-12-08T06:12:01;98042.69;;;4.58;100.00
8627;BME280;4351;51.422;6.794;2022-12-08T06:14:29;98051.38;;;4.37;100.00
8627;BME280;4351;51.422;6.794;2022-12-08T06:16:57;98040.84;;;4.47;100.00
8627;BME280;4351;51.422;6.794;2022-12-08T06:19:25;98046.19;;;4.47;100.00
8627;BME280;4351;51.422;6.794;2022-12-08T06:21:53;98045.31;;;4.35;100.00
8627;BME280;4351;51.422;6.794;2022-12-08T06:24:21;98036.47;;;4.46;100.00
8627;BME280;4351;51.422;6.794;2022-12-08T06:26:49;98029.56;;;4.55;100.00
8627;BME280;4351;51.422;6.794;2022-12-08T06:29:18;98037.44;;;4.57;100.00
8627;BME280;4351;51.422;6.794;2022-12-08T06:31:46;98033.19;;;4.54;100.00
8627;BME280;4351;51.422;6.794;2022-12-08T06:34:14;98038.19;;;4.47;100.00
8627;BME280;4351;51.422;6.794;2022-12-08T06:36:42;98035.16;;;4.41;100.00
8627;BME280;4351;51.422;6.794;2022-12-08T06:39:10;98041.56;;;4.27;100.00
8627;BME280;4351;51.422;6.794;2022-12-08T06:41:38;98036.34;;;4.36;100.00
8627;BME280;4351;51.422;6.794;2022-12-08T06:44:21;98047.25;;;4.33;100.00
8627;BME280;4351;51.422;6.794;2022-12-08T06:46:49;98028.09;;;4.51;100.00
8627;BME280;4351;51.422;6.794;2022-12-08T06:49:17;98029.69;;;4.42;100.00
8627;BME280;4351;51.422;6.794;2022-12-08T06:51:45;98014.13;;;4.59;100.00
8627;BME280;4351;51.422;6.794;2022-12-08T06:54:13;98017.56;;;4.50;100.00
8627;BME280;4351;51.422;6.794;2022-12-08T06:56:41;98017.06;;;4.44;100.00
8627;BME280;4351;51.422;6.794;2022-12-08T06:59:08;98005.16;;;4.48;100.00
8627;BME280;4351;51.422;6.794;2022-12-08T07:01:38;98003.22;;;4.51;100.00
8627;BME280;4351;51.422;6.794;2022-12-08T07:04:06;98012.44;;;4.46;100.00
8627;BME280;4351;51.422;6.794;2022-12-08T07:06:34;98007.47;;;4.53;100.00
8627;BME280;4351;51.422;6.794;2022-12-08T07:09:02;98002.13;;;4.65;100.00
8627;BME280;4351;51.422;6.794;2022-12-08T07:11:30;97994.34;;;4.73;100.00
8627;BME280;4351;51.422;6.794;2022-12-08T07:13:58;98011.00;;;4.54;100.00
8627;BME280;4351;51.422;6.794;2022-12-08T07:16:28;98027.00;;;4.42;100.00
8627;BME280;4351;51.422;6.794;2022-12-08T07:18:58;98004.19;;;4.72;100.00
8627;BME280;4351;51.422;6.794;2022-12-08T07:21:26;98022.63;;;4.41;100.00
8627;BME280;4351;51.422;6.794;2022-12-08T07:23:53;98025.19;;;4.43;100.00
8627;BME280;4351;51.422;6.794;2022-12-08T07:26:23;98030.75;;;4.40;100.00
8627;BME280;4351;51.422;6.794;2022-12-08T07:28:52;98025.56;;;4.50;100.00
8627;BME280;4351;51.422;6.794;2022-12-08T07:31:21;98004.69;;;4.66;100.00
8627;BME280;4351;51.422;6.794;2022-12-08T07:33:51;98021.91;;;4.51;100.00
8627;BME280;4351;51.422;6.794;2022-12-08T07:36:21;98033.06;;;4.44;100.00
8627;BME280;4351;51.422;6.794;2022-12-08T07:38:50;98024.81;;;4.59;100.00
8627;BME280;4351;51.422;6.794;2022-12-08T07:41:20;98026.41;;;4.50;100.00
8627;BME280;4351;51.422;6.794;2022-12-08T07:43:49;98048.81;;;4.24;100.00
8627;BME280;4351;51.422;6.794;2022-12-08T07:46:19;98045.44;;;4.22;100.00
8627;BME280;4351;51.422;6.794;2022-12-08T07:48:48;98034.53;;;4.25;100.00
8627;BME280;4351;51.422;6.794;2022-12-08T07:51:17;98055.44;;;3.96;100.00
8627;BME280;4351;51.422;6.794;2022-12-08T07:53:48;98057.06;;;4.10;100.00
8627;BME280;4351;51.422;6.794;2022-12-08T07:56:20;98069.38;;;3.88;100.00
8627;BME280;4351;51.422;6.794;2022-12-08T07:58:48;98065.84;;;3.87;100.00
8627;BME280;4351;51.422;6.794;2022-12-08T08:01:22;98066.78;;;3.86;100.00
8627;BME280;4351;51.422;6.794;2022-12-08T08:03:51;98047.56;;;3.94;100.00
8627;BME280;4351;51.422;6.794;2022-12-08T08:06:20;98054.34;;;3.98;100.00
8627;BME280;4351;51.422;6.794;2022-12-08T08:08:50;98060.75;;;3.96;100.00
8627;BME280;4351;51.422;6.794;2022-12-08T08:11:19;98064.81;;;4.01;100.00
8627;BME280;4351;51.422;6.794;2022-12-08T08:13:47;98062.88;;;4.04;100.00
8627;BME280;4351;51.422;6.794;2022-12-08T08:16:16;98060.81;;;4.07;100.00
8627;BME280;4351;51.422;6.794;2022-12-08T08:18:45;98057.03;;;3.98;100.00
8627;BME280;4351;51.422;6.794;2022-12-08T08:21:13;98058.50;;;4.14;100.00
8627;BME280;4351;51.422;6.794;2022-12-08T08:24:03;98063.81;;;4.02;100.00
8627;BME280;4351;51.422;6.794;2022-12-08T08:26:31;98061.75;;;4.06;100.00
8627;BME280;4351;51.422;6.794;2022-12-08T08:28:59;98073.75;;;4.00;100.00
8627;BME280;4351;51.422;6.794;2022-12-08T08:31:27;98061.19;;;4.14;100.00
8627;BME280;4351;51.422;6.794;2022-12-08T08:33:56;98061.91;;;4.16;100.00
8627;BME280;4351;51.422;6.794;2022-12-08T08:36:32;98066.47;;;4.02;100.00
8627;BME280;4351;51.422;6.794;2022-12-08T08:39:00;98075.47;;;4.01;100.00
8627;BME280;4351;51.422;6.794;2022-12-08T08:41:29;98065.16;;;4.08;100.00
8627;BME280;4351;51.422;6.794;2022-12-08T08:43:57;98063.59;;;4.06;100.00
8627;BME280;4351;51.422;6.794;2022-12-08T08:46:25;98074.44;;;3.91;100.00
8627;BME280;4351;51.422;6.794;2022-12-08T08:48:53;98074.22;;;3.94;100.00
8627;BME280;4351;51.422;6.794;2022-12-08T08:51:21;98072.28;;;3.96;100.00
8627;BME280;4351;51.422;6.794;2022-12-08T08:53:49;98072.28;;;3.96;100.00
8627;BME280;4351;51.422;6.794;2022-12-08T08:56:18;98076.63;;;3.86;100.00
8627;BME280;4351;51.422;6.794;2022-12-08T08:58:48;98074.63;;;4.01;100.00
8627;BME280;4351;51.422;6.794;2022-12-08T09:01:17;98067.81;;;3.97;100.00
8627;BME280;4351;51.422;6.794;2022-12-08T09:03:46;98071.50;;;3.83;100.00
8627;BME280;4351;51.422;6.794;2022-12-08T09:06:14;98082.44;;;3.79;100.00
8627;BME280;4351;51.422;6.794;2022-12-08T09:08:43;98072.28;;;3.96;100.00
8627;BME280;4351;51.422;6.794;2022-12-08T09:11:11;98067.19;;;3.93;100.00
8627;BME280;4351;51.422;6.794;2022-12-08T09:13:40;98070.81;;;3.92;100.00
8627;BME280;4351;51.422;6.794;2022-12-08T09:16:10;98042.16;;;4.42;100.00
8627;BME280;4351;51.422;6.794;2022-12-08T09:18:38;98052.69;;;4.20;100.00
8627;BME280;4351;51.422;6.794;2022-12-08T09:21:08;98073.16;;;3.97;100.00
8627;BME280;4351;51.422;6.794;2022-12-08T09:23:37;98076.16;;;3.92;100.00
8627;BME280;4351;51.422;6.794;2022-12-08T09:26:05;98066.00;;;4.09;100.00
8627;BME280;4351;51.422;6.794;2022-12-08T09:28:33;98071.13;;;4.12;100.00
8627;BME280;4351;51.422;6.794;2022-12-08T09:31:02;98067.09;;;4.06;100.00
8627;BME280;4351;51.422;6.794;2022-12-08T09:33:31;98069.41;;;4.11;100.00
8627;BME280;4351;51.422;6.794;2022-12-08T09:36:01;98065.16;;;4.08;100.00
8627;BME280;4351;51.422;6.794;2022-12-08T09:38:30;98048.59;;;4.28;100.00
8627;BME280;4351;51.422;6.794;2022-12-08T09:40:58;98054.16;;;4.24;100.00
8627;BME280;4351;51.422;6.794;2022-12-08T09:43:55;98064.19;;;4.09;100.00
8627;BME280;4351;51.422;6.794;2022-12-08T09:46:28;98057.28;;;4.07;100.00
8627;BME280;4351;51.422;6.794;2022-12-08T09:48:59;98057.53;;;4.04;100.00
8627;BME280;4351;51.422;6.794;2022-12-08T09:51:32;98044.44;;;4.12;100.00
8627;BME280;4351;51.422;6.794;2022-12-08T09:54:06;98040.78;;;4.13;100.00
8627;BME280;4351;51.422;6.794;2022-12-08T09:56:36;98032.78;;;4.13;100.00
8627;BME280;4351;51.422;6.794;2022-12-08T09:59:10;98033.25;;;4.07;100.00
8627;BME280;4351;51.422;6.794;2022-12-08T10:01:42;98023.84;;;4.14;100.00
8627;BME280;4351;51.422;6.794;2022-12-08T10:04:19;98018.50;;;4.14;100.00
8627;BME280;4351;51.422;6.794;2022-12-08T10:06:57;98022.13;;;4.13;100.00
8627;BME280;4351;51.422;6.794;2022-12-08T10:09:35;98015.69;;;4.16;100.00
8627;BME280;4351;51.422;6.794;2022-12-08T10:12:12;98014.50;;;4.20;100.00
8627;BME280;4351;51.422;6.794;2022-12-08T10:14:46;98020.88;;;3.94;100.00
8627;BME280;4351;51.422;6.794;2022-12-08T10:17:23;98018.47;;;4.02;100.00
8627;BME280;4351;51.422;6.794;2022-12-08T10:19:58;98014.09;;;4.13;100.00
8627;BME280;4351;51.422;6.794;2022-12-08T10:22:32;98012.16;;;3.92;100.00
8627;BME280;4351;51.422;6.794;2022-12-08T10:25:14;98005.84;;;4.05;100.00
8627;BME280;4351;51.422;6.794;2022-12-08T10:27:45;98003.44;;;4.01;100.00
8627;BME280;4351;51.422;6.794;2022-12-08T10:30:17;98001.34;;;3.94;100.00
8627;BME280;4351;51.422;6.794;2022-12-08T10:32:49;97992.88;;;4.11;100.00
8627;BME280;4351;51.422;6.794;2022-12-08T10:35:20;98004.16;;;4.04;100.00
8627;BME280;4351;51.422;6.794;2022-12-08T10:37:54;97992.75;;;4.13;100.00
8627;BME280;4351;51.422;6.794;2022-12-08T10:40:23;97986.72;;;4.22;100.00
8627;BME280;4351;51.422;6.794;2022-12-08T10:42:55;97988.03;;;4.05;100.00
8627;BME280;4351;51.422;6.794;2022-12-08T10:45:26;97987.94;;;4.18;100.00
8627;BME280;4351;51.422;6.794;2022-12-08T10:47:59;97986.97;;;4.08;100.00
8627;BME280;4351;51.422;6.794;2022-12-08T10:50:32;97980.91;;;4.29;100.00
8627;BME280;4351;51.422;6.794;2022-12-08T10:53:10;97981.25;;;4.12;100.00
8627;BME280;4351;51.422;6.794;2022-12-08T10:55:41;97962.47;;;4.25;100.00
8627;BME280;4351;51.422;6.794;2022-12-08T10:58:31;97974.22;;;4.23;100.00
8627;BME280;4351;51.422;6.794;2022-12-08T11:01:05;97962.72;;;4.34;100.00
8627;BME280;4351;51.422;6.794;2022-12-08T11:03:35;97964.03;;;4.28;100.00
8627;BME280;4351;51.422;6.794;2022-12-08T11:06:13;97977.00;;;4.10;100.00
8627;BME280;4351;51.422;6.794;2022-12-08T11:08:48;97969.00;;;4.21;100.00
8627;BME280;4351;51.422;6.794;2022-12-08T11:11:17;97959.19;;;4.22;100.00
8627;BME280;4351;51.422;6.794;2022-12-08T11:13:54;97943.66;;;4.27;100.00
8627;BME280;4351;51.422;6.794;2022-12-08T11:16:23;97936.38;;;4.41;100.00
8627;BME280;4351;51.422;6.794;2022-12-08T11:18:55;97919.00;;;4.46;100.00
8627;BME280;4351;51.422;6.794;2022-12-08T11:21:34;97918.44;;;4.31;100.00
8627;BME280;4351;51.422;6.794;2022-12-08T11:24:21;97915.63;;;4.33;100.00
8627;BME280;4351;51.422;6.794;2022-12-08T11:26:52;97899.84;;;4.41;100.00
8627;BME280;4351;51.422;6.794;2022-12-08T11:29:21;97887.47;;;4.40;100.00
8627;BME280;4351;51.422;6.794;2022-12-08T11:31:51;97871.69;;;4.48;100.00
8627;BME280;4351;51.422;6.794;2022-12-08T11:34:30;97852.13;;;4.48;100.00
8627;BME280;4351;51.422;6.794;2022-12-08T11:37:00;97866.84;;;4.31;100.00
8627;BME280;4351;51.422;6.794;2022-12-08T11:39:33;97852.28;;;4.35;100.00
8627;BME280;4351;51.422;6.794;2022-12-08T11:42:02;97852.31;;;4.23;100.00
8627;BME280;4351;51.422;6.794;2022-12-08T11:44:37;97841.63;;;4.35;100.00
8627;BME280;4351;51.422;6.794;2022-12-08T11:47:13;97842.13;;;4.29;100.00
8627;BME280;4351;51.422;6.794;2022-12-08T11:49:46;97838.00;;;4.36;100.00
8627;BME280;4351;51.422;6.794;2022-12-08T11:52:22;97834.81;;;4.42;100.00
8627;BME280;4351;51.422;6.794;2022-12-08T11:54:56;97835.53;;;4.44;100.00
8627;BME280;4351;51.422;6.794;2022-12-08T11:57:27;97840.38;;;4.39;100.00
8627;BME280;4351;51.422;6.794;2022-12-08T11:59:57;97833.81;;;4.43;100.00
8627;BME280;4351;51.422;6.794;2022-12-08T12:02:26;97832.66;;;4.36;100.00
8627;BME280;4351;51.422;6.794;2022-12-08T12:04:59;97822.69;;;4.38;100.00
8627;BME280;4351;51.422;6.794;2022-12-08T12:07:46;97816.72;;;4.46;100.00
8627;BME280;4351;51.422;6.794;2022-12-08T12:10:32;97838.94;;;4.35;100.00
8627;BME280;4351;51.422;6.794;2022-12-08T12:13:09;97844.06;;;4.27;100.00
8627;BME280;4351;51.422;6.794;2022-12-08T12:18:43;97836.75;;;4.40;100.00
8627;BME280;4351;51.422;6.794;2022-12-08T12:21:16;97839.44;;;4.40;100.00
8627;BME280;4351;51.422;6.794;2022-12-08T12:23:50;97804.75;;;4.94;100.00
8627;BME280;4351;51.422;6.794;2022-12-08T12:26:22;97905.03;;;4.54;100.00
8627;BME280;4351;51.422;6.794;2022-12-08T12:28:55;97928.25;;;4.31;100.00
8627;BME280;4351;51.422;6.794;2022-12-08T12:31:27;97931.41;;;4.47;100.00
8627;BME280;4351;51.422;6.794;2022-12-08T12:34:07;97955.75;;;4.08;100.00
8627;BME280;4351;51.422;6.794;2022-12-08T12:36:49;97946.44;;;4.14;100.00
8627;BME280;4351;51.422;6.794;2022-12-08T12:39:24;97966.31;;;3.98;100.00
8627;BME280;4351;51.422;6.794;2022-12-08T12:41:56;97958.56;;;4.18;100.00
8627;BME280;4351;51.422;6.794;2022-12-08T12:44:39;97977.00;;;3.98;100.00
8627;BME280;4351;51.422;6.794;2022-12-08T12:47:13;97969.00;;;3.98;100.00
8627;BME280;4351;51.422;6.794;2022-12-08T12:50:06;97968.50;;;4.05;100.00
8627;BME280;4351;51.422;6.794;2022-12-08T12:52:44;97963.66;;;3.98;100.00
8627;BME280;4351;51.422;6.794;2022-12-08T12:55:37;97976.50;;;3.82;100.00
8627;BME280;4351;51.422;6.794;2022-12-08T12:58:37;97966.81;;;4.04;100.00
8627;BME280;4351;51.422;6.794;2022-12-08T13:04:11;97956.16;;;4.04;100.00
8627;BME280;4351;51.422;6.794;2022-12-08T13:06:42;97956.59;;;3.97;100.00
8627;BME280;4351;51.422;6.794;2022-12-08T13:09:20;97944.88;;;4.11;100.00
8627;BME280;4351;51.422;6.794;2022-12-08T13:11:52;97946.66;;;3.99;100.00
8627;BME280;4351;51.422;6.794;2022-12-08T13:14:30;97941.81;;;4.05;100.00
8627;BME280;4351;51.422;6.794;2022-12-08T13:17:00;97949.34;;;3.99;100.00
8627;BME280;4351;51.422;6.794;2022-12-08T13:19:30;97936.00;;;4.11;100.00
8627;BME280;4351;51.422;6.794;2022-12-08T13:22:00;97949.59;;;4.08;100.00
8627;BME280;4351;51.422;6.794;2022-12-08T13:24:32;97950.34;;;4.10;100.00
8627;BME280;4351;51.422;6.794;2022-12-08T13:27:32;97945.47;;;4.04;100.00
8627;BME280;4351;51.422;6.794;2022-12-08T13:33:18;97930.78;;;4.32;100.00
8627;BME280;4351;51.422;6.794;2022-12-08T13:36:02;97950.44;;;3.97;100.00
8627;BME280;4351;51.422;6.794;2022-12-08T13:38:33;97946.78;;;3.86;100.00
8627;BME280;4351;51.422;6.794;2022-12-08T13:41:08;97956.31;;;3.77;100.00
8627;BME280;4351;51.422;6.794;2022-12-08T13:43:44;97965.31;;;3.76;100.00
8627;BME280;4351;51.422;6.794;2022-12-08T13:46:37;97979.06;;;3.59;100.00
8627;BME280;4351;51.422;6.794;2022-12-08T13:49:31;97966.00;;;3.67;100.00
8627;BME280;4351;51.422;6.794;2022-12-08T13:52:30;97967.00;;;3.66;100.00
8627;BME280;4351;51.422;6.794;2022-12-08T13:55:24;97957.78;;;3.70;100.00
8627;BME280;4351;51.422;6.794;2022-12-08T13:58:18;97952.09;;;3.75;100.00
8627;BME280;4351;51.422;6.794;2022-12-08T14:00:59;97958.13;;;3.65;100.00
8627;BME280;4351;51.422;6.794;2022-12-08T14:03:29;97955.97;;;3.71;100.00